Latest Weather Observations for Redcliffe

IDQ60801

Issued at 12:05 pm EST Friday 22 August 2014 (issued every 30 minutes, with the page automatically refreshed every 10 minutes)

About weather observations | Map of weather stations | Latest weather observations for QLD | Other Formats
Station Details ID: 040958 Name: REDCLIFFE Lat: -27.22 Lon: 153.09 Height: 12.6 m
Data from the previous 72 hours. | See also: Recent months at Redcliffe
Date/Time
EST
Temp
°C
App
Temp
°C
Dew
Point
Rel
Hum
%
Delta-T
°C
Wind Press
QNH
hPa
Press
MSL
hPa
Rain
since 9 am
mm
Dir
 
Spd
km/h
Gust
km/h
Spd
kts
Gust
kts
22/12:00pm 16.2 12.8 13.7 85 1.4 SSE 24 28 13 15 1024.5 1024.5 5.4
22/11:30am 15.7 11.7 14.1 90 0.9 SSE 28 30 15 16 1025.1 1025.1 5.2
22/11:00am 15.6 14.0 14.0 90 0.9 S 15 19 8 10 1025.5 1025.5 3.8
22/10:30am 15.5 12.0 13.3 87 1.2 S 24 32 13 17 1026.0 1026.0 0.8
22/10:00am 15.9 13.8 13.6 86 1.3 S 17 24 9 13 1025.9 1025.9 0.2
22/09:30am 15.5 12.7 13.3 87 1.2 S 20 30 11 16 1026.0 1026.0 0.2
22/09:00am 15.4 11.1 13.2 87 1.2 S 28 32 15 17 1025.8 1025.8 1.0
22/08:30am 14.8 9.6 12.7 87 1.2 S 32 35 17 19 1025.4 1025.4 0.8
22/08:00am 14.6 10.0 12.3 86 1.2 S 28 35 15 19 1025.1 1025.1 0.8
22/07:30am 14.4 10.9 12.1 86 1.2 S 22 33 12 18 1025.0 1025.0 0.8
22/07:00am 14.3 10.1 12.3 88 1.1 S 26 32 14 17 1024.9 1024.9 0.8
22/06:30am 14.0 11.0 11.9 87 1.1 SSW 19 24 10 13 1024.4 1024.4 0.6
22/06:00am 14.4 10.4 11.9 85 1.3 S 24 30 13 16 1024.2 1024.2 0.4
22/05:30am 15.4 10.3 11.8 79 1.9 S 30 33 16 18 1023.9 1023.9 0.0
22/05:00am 15.6 10.3 11.4 76 2.2 S 30 33 16 18 1023.5 1023.5 0.0
22/04:30am 15.6 10.2 10.8 73 2.5 S 30 33 16 18 1023.0 1023.0 0.0
22/04:00am 15.7 12.1 10.5 71 2.7 S 20 26 11 14 1023.2 1023.2 0.0
22/03:30am 15.4 12.7 10.4 72 2.6 S 15 20 8 11 1023.3 1023.3 0.0
22/03:00am 15.9 13.2 10.4 70 2.9 SSW 15 24 8 13 1023.5 1023.5 0.0
22/02:30am 15.9 11.9 10.4 70 2.9 S 22 28 12 15 1023.7 1023.7 0.0
22/02:00am 15.9 12.2 10.2 69 3.0 SSW 20 28 11 15 1023.4 1023.4 0.0
22/01:30am 15.6 12.2 10.4 71 2.7 SSW 19 26 10 14 1023.5 1023.5 0.0
22/01:00am 15.7 12.1 10.7 72 2.6 SSW 20 30 11 16 1024.0 1024.0 0.0
22/12:30am 15.6 11.4 11.2 75 2.4 S 24 33 13 18 1023.5 1023.5 0.0
22/12:00am 15.6 10.7 11.2 75 2.3 S 28 37 15 20 1023.8 1023.8 0.0
 
Date/Time
EST
Temp
°C
App
Temp
°C
Dew
Point
Rel
Hum
%
Delta-T
°C
Wind Press
QNH
hPa
Press
MSL
hPa
Rain
since 9 am
mm
Dir
 
Spd
km/h
Gust
km/h
Spd
kts
Gust
kts
21/11:30pm 15.7 10.5 11.5 76 2.3 S 30 35 16 19 1023.9 1023.9 0.0
21/11:00pm 15.7 11.0 11.9 78 2.1 S 28 35 15 19 1024.2 1024.2 0.0
21/10:30pm 15.8 12.8 12.4 80 1.9 S 20 28 11 15 1024.5 1024.5 0.0
21/10:00pm 15.8 13.0 12.5 81 1.8 SSW 19 26 10 14 1024.3 1024.3 0.0
21/09:30pm 16.2 12.1 12.7 80 1.9 S 26 37 14 20 1024.4 1024.4 0.0
21/09:00pm 16.5 11.6 12.7 78 2.1 S 30 39 16 21 1024.2 1024.2 0.0
21/08:30pm 16.7 11.1 13.2 80 2.0 SSE 35 43 19 23 1024.0 1024.0 0.0
21/08:00pm 16.7 10.9 12.7 77 2.2 S 35 44 19 24 1023.6 1023.6 0.0
21/07:30pm 16.8 10.7 13.1 79 2.1 SSE 37 44 20 24 1023.2 1023.2 0.0
21/07:00pm 16.9 10.0 12.8 77 2.3 SSE 41 48 22 26 1022.8 1022.8 0.0
21/06:30pm 16.8 10.2 12.7 77 2.3 S 39 44 21 24 1022.9 1022.9 0.0
21/06:00pm 16.3 8.2 12.1 76 2.3 SSE 46 57 25 31 1022.2 1022.2 0.0
21/05:30pm 17.5 10.0 12.2 71 2.9 SSE 43 54 23 29 1021.9 1021.9 0.0
21/05:00pm 18.0 10.4 11.8 67 3.4 SSE 43 52 23 28 1021.7 1021.7 0.0
21/04:30pm 18.3 11.1 11.8 66 3.6 SSE 41 50 22 27 1021.3 1021.3 0.0
21/04:00pm 18.8 10.9 11.6 63 3.9 SSE 44 61 24 33 1020.7 1020.7 0.0
21/03:59pm 18.7 11.0 11.5 63 3.9 SSE 43 61 23 33 1020.6 1020.6 0.0
21/03:30pm 19.2 10.9 11.5 61 4.2 SSE 46 56 25 30 1020.4 1020.4 0.0
21/03:00pm 19.3 11.3 10.6 57 4.7 SSE 43 52 23 28 1020.5 1020.5 0.0
21/02:30pm 19.4 11.6 11.2 59 4.5 SE 43 50 23 27 1020.5 1020.5 0.0
21/02:00pm 19.7 12.9 10.7 56 4.9 SE 37 43 20 23 1020.8 1020.8 0.0
21/01:30pm 19.8 13.2 11.3 58 4.7 SSE 37 44 20 24 1021.0 1021.0 0.0
21/01:00pm 20.1 13.1 11.1 56 4.9 SSE 39 46 21 25 1020.9 1020.9 0.0
21/12:30pm 19.8 13.4 10.8 56 4.9 SE 35 43 19 23 1021.4 1021.4 0.0
21/12:00pm 19.9 13.2 10.9 56 4.9 SSE 37 41 20 22 1022.0 1022.0 0.0
21/11:30am 20.4 15.1 9.9 51 5.6 SSE 28 33 15 18 1022.5 1022.5 0.0
21/11:00am 19.8 13.1 11.0 57 4.8 SSE 37 43 20 23 1022.7 1022.7 0.0
21/10:30am 19.6 13.5 10.6 56 4.9 SSE 33 41 18 22 1022.9 1022.9 0.0
21/10:00am 19.7 15.9 9.9 53 5.2 S 20 24 11 13 1023.1 1023.1 0.0
21/09:30am 18.4 13.9 10.0 58 4.5 S 24 28 13 15 1023.1 1023.1 0.0
21/09:00am 17.8 14.5 9.7 59 4.2 S 17 24 9 13 1023.3 1023.3 0.0
21/08:30am 16.8 13.4 9.2 61 3.9 SSW 17 24 9 13 1023.1 1023.1 0.0
21/08:00am 15.5 12.1 9.2 66 3.2 SSW 17 26 9 14 1023.0 1023.0 0.0
21/07:30am 14.5 9.4 9.1 70 2.8 SSW 26 33 14 18 1022.1 1022.1 0.0
21/07:00am 13.6 9.1 8.7 72 2.5 SSW 22 32 12 17 1022.0 1022.0 0.0
21/06:30am 13.2 9.4 8.9 75 2.2 SSW 19 30 10 16 1022.0 1022.0 0.0
21/06:00am 13.0 9.5 8.9 76 2.1 SSW 17 24 9 13 1022.0 1022.0 0.0
21/05:30am 13.3 9.9 9.2 76 2.1 SSW 17 26 9 14 1021.8 1021.8 0.0
21/05:00am 13.1 10.5 9.4 78 1.9 SSW 13 19 7 10 1021.6 1021.6 0.0
21/04:30am 13.1 10.5 9.4 78 1.9 SSW 13 17 7 9 1021.5 1021.5 0.0
21/04:00am 13.0 10.0 9.3 78 1.9 SSW 15 20 8 11 1021.3 1021.3 0.0
21/03:30am 13.1 10.1 9.2 77 2.0 SSW 15 22 8 12 1021.2 1021.2 0.0
21/03:00am 12.9 10.2 8.8 76 2.0 SW 13 17 7 9 1021.4 1021.4 0.0
21/02:30am 13.2 10.1 8.9 75 2.2 SW 15 19 8 10 1021.5 1021.5 0.0
21/02:00am 13.2 10.4 8.7 74 2.2 SSW 13 17 7 9 1021.6 1021.6 0.0
21/01:30am 13.5 11.2 9.0 74 2.3 SSW 11 15 6 8 1021.7 1021.7 0.0
21/01:00am 13.9 11.2 8.9 72 2.5 SSW 13 17 7 9 1021.9 1021.9 0.0
21/12:30am 14.5 11.9 9.3 71 2.7 SSW 13 19 7 10 1022.0 1022.0 0.0
21/12:00am 15.2 12.4 10.0 71 2.7 SSW 15 20 8 11 1022.0 1022.0 0.0
 
Date/Time
EST
Temp
°C
App
Temp
°C
Dew
Point
Rel
Hum
%
Delta-T
°C
Wind Press
QNH
hPa
Press
MSL
hPa
Rain
since 9 am
mm
Dir
 
Spd
km/h
Gust
km/h
Spd
kts
Gust
kts
20/11:30pm 15.7 11.3 10.5 71 2.7 S 24 30 13 16 1022.1 1022.1 0.0
20/11:00pm 16.1 11.0 10.6 70 2.9 S 28 32 15 17 1022.2 1022.2 0.0
20/10:30pm 16.4 10.9 10.7 69 3.0 S 30 33 16 18 1022.3 1022.3 0.0
20/10:00pm 16.5 11.4 10.6 68 3.1 S 28 33 15 18 1022.3 1022.3 0.0
20/09:30pm 16.9 11.8 10.7 67 3.3 S 28 33 15 18 1022.1 1022.1 0.0
20/09:00pm 17.2 11.3 11.0 67 3.3 SSE 33 37 18 20 1022.1 1022.1 0.0
20/08:30pm 17.4 11.6 11.4 68 3.3 SSE 33 39 18 21 1021.9 1021.9 0.0
20/08:00pm 17.6 11.8 11.4 67 3.4 SSE 33 39 18 21 1021.8 1021.8 0.0
20/07:30pm 18.1 11.6 10.2 60 4.2 SSE 35 44 19 24 1021.2 1021.2 0.0
20/07:00pm 18.1 12.2 11.2 64 3.7 SE 33 39 18 21 1021.1 1021.1 0.0
20/06:30pm 17.9 12.4 11.7 67 3.4 SE 32 37 17 20 1020.5 1020.5 0.0
20/06:00pm 18.0 12.4 12.0 68 3.3 SE 33 37 18 20 1020.0 1020.0 0.0
20/05:30pm 18.2 12.6 11.5 65 3.7 SE 32 35 17 19 1019.5 1019.5 0.0
20/05:00pm 18.5 13.7 11.6 64 3.8 SE 28 33 15 18 1019.3 1019.3 0.0
20/04:30pm 18.9 13.7 11.5 62 4.1 SE 30 35 16 19 1018.7 1018.7 0.0
20/04:00pm 19.3 16.0 10.8 58 4.6 SE 19 22 10 12 1018.4 1018.4 0.0
20/03:30pm 19.3 15.6 10.3 56 4.8 ESE 20 26 11 14 1018.2 1018.2 0.0
20/03:00pm 19.9 16.3 10.0 53 5.3 ESE 19 24 10 13 1018.1 1018.1 0.0
20/02:30pm 20.0 16.8 9.9 52 5.4 SE 17 19 9 10 1018.1 1018.1 0.0
20/02:00pm 20.0 16.3 9.6 51 5.5 ESE 19 24 10 13 1018.3 1018.3 0.0
20/01:30pm 19.7 16.4 9.6 52 5.4 ESE 17 28 9 15 1018.4 1018.4 0.0
20/01:00pm 20.4 17.3 10.2 52 5.5 SE 17 19 9 10 1018.6 1018.6 0.0
20/12:30pm 19.6 17.4 7.7 46 6.1 SE 9 11 5 6 1018.7 1018.7 0.0
20/12:00pm 19.7 17.2 8.1 47 6.0 E 11 13 6 7 1019.0 1019.0 0.0
20/11:30am 19.6 17.3 7.4 45 6.2 SE 9 13 5 7 1019.4 1019.4 0.0
20/11:00am 20.5 17.5 7.5 43 6.7 S 13 15 7 8 1019.7 1019.7 0.0
20/10:30am 20.4 16.5 7.1 42 6.8 S 17 19 9 10 1019.9 1019.9 0.0
20/10:00am 20.0 16.2 7.4 44 6.4 S 17 24 9 13 1020.1 1020.1 0.0
20/09:30am 19.5 15.8 7.9 47 6.0 S 17 24 9 13 1020.1 1020.1 0.0
20/09:00am 18.3 14.5 7.7 50 5.4 SSW 17 22 9 12 1020.0 1020.0 0.0
20/08:30am 17.5 14.0 8.6 56 4.6 SSW 17 24 9 13 1019.9 1019.9 0.0
20/08:00am 15.6 12.8 8.6 63 3.5 SW 13 17 7 9 1019.9 1019.9 0.0
20/07:30am 14.0 11.1 8.0 67 3.0 WSW 13 17 7 9 1019.8 1019.8 0.0
20/07:00am 12.2 9.3 8.1 76 2.0 WSW 13 15 7 8 1019.4 1019.4 0.0
20/06:30am 10.7 7.3 7.6 81 1.5 SW 15 17 8 9 1019.0 1019.0 0.0
20/06:00am 11.1 8.8 7.6 79 1.7 WSW 9 13 5 7 1018.7 1018.7 0.0
20/05:30am 11.8 9.2 7.9 77 1.9 WSW 11 13 6 7 1018.4 1018.4 0.0
20/05:00am 11.9 9.7 7.8 76 2.0 WSW 9 11 5 6 1017.8 1017.8 0.0
20/04:30am 11.5 9.0 8.0 79 1.7 SW 11 15 6 8 1017.5 1017.5 0.0
20/04:00am 11.5 8.5 7.8 78 1.8 WSW 13 17 7 9 1017.2 1017.2 0.0
20/03:30am 11.7 8.7 7.8 77 1.9 WSW 13 15 7 8 1016.9 1016.9 0.0
20/03:00am 11.3 8.9 7.2 76 2.0 WSW 9 11 5 6 1016.7 1016.7 0.0
20/02:30am 11.9 9.5 7.2 73 2.3 WSW 9 13 5 7 1016.8 1016.8 0.0
20/02:00am 12.6 9.9 7.5 71 2.5 WSW 11 15 6 8 1016.8 1016.8 0.0
20/01:30am 12.9 10.1 7.1 68 2.8 WSW 11 13 6 7 1016.7 1016.7 0.0
20/01:00am 13.4 11.0 7.0 65 3.1 WSW 9 13 5 7 1016.6 1016.6 0.0
20/12:30am 13.9 11.5 7.2 64 3.3 W 9 13 5 7 1016.7 1016.7 0.0
20/12:00am 14.0 11.2 7.1 63 3.4 WSW 11 13 6 7 1016.7 1016.7 0.0
 
Date/Time
EST
Temp
°C
App
Temp
°C
Dew
Point
Rel
Hum
%
Delta-T
°C
Wind Press
QNH
hPa
Press
MSL
hPa
Rain
since 9 am
mm
Dir
 
Spd
km/h
Gust
km/h
Spd
kts
Gust
kts
19/11:30pm 14.5 11.4 7.1 61 3.6 WSW 13 17 7 9 1016.7 1016.7 0.0
19/11:00pm 14.1 11.2 6.5 60 3.7 WSW 11 15 6 8 1016.7 1016.7 0.0
19/10:30pm 15.0 11.7 6.3 56 4.2 W 13 17 7 9 1016.4 1016.4 0.0
19/10:00pm 15.5 12.3 6.8 56 4.3 WSW 13 19 7 10 1016.3 1016.3 0.0
19/09:30pm 15.9 13.0 6.3 53 4.7 WSW 11 19 6 10 1016.3 1016.3 0.0
19/09:00pm 16.5 13.2 6.3 51 5.0 W 13 15 7 8 1016.0 1016.0 0.0
19/08:30pm 17.2 13.1 6.1 48 5.4 WSW 17 28 9 15 1015.8 1015.8 0.0
19/08:00pm 17.1 13.4 6.3 49 5.3 WSW 15 24 8 13 1015.6 1015.6 0.0
19/07:30pm 17.4 13.3 6.0 47 5.6 WSW 17 24 9 13 1015.3 1015.3 0.0
19/07:00pm 18.5 14.3 5.7 43 6.3 WSW 17 30 9 16 1014.7 1014.7 0.0
19/06:30pm 18.9 13.7 5.7 42 6.5 WSW 22 33 12 18 1014.2 1014.2 0.0
19/06:00pm 19.2 15.0 5.6 41 6.7 WSW 17 32 9 17 1013.8 1013.8 0.0
19/05:30pm 19.6 14.9 5.3 39 7.0 WSW 19 28 10 15 1012.9 1012.9 0.0
19/05:00pm 20.6 15.1 5.8 38 7.4 WSW 24 35 13 19 1012.2 1012.2 0.0
19/04:30pm 21.2 16.5 5.9 37 7.7 WSW 20 35 11 19 1011.9 1011.9 0.0
19/04:00pm 21.7 14.6 5.6 35 8.0 W 32 44 17 24 1011.7 1011.7 0.0
19/03:30pm 21.9 15.9 5.3 34 8.3 W 26 39 14 21 1011.2 1011.2 0.0
19/03:00pm 22.3 15.9 5.3 33 8.5 W 28 39 15 21 1011.1 1011.1 0.0
19/02:30pm 22.5 17.9 6.3 35 8.2 W 20 32 11 17 1011.2 1011.2 0.0
19/02:00pm 22.3 16.8 6.1 35 8.2 W 24 39 13 21 1011.4 1011.4 0.0
19/01:30pm 21.6 15.4 6.3 37 7.7 W 28 35 15 19 1011.4 1011.4 0.0
19/01:00pm 21.3 16.1 5.6 36 7.8 W 22 41 12 22 1011.5 1011.5 0.0
19/12:30pm 21.7 17.4 6.8 38 7.6 WSW 19 28 10 15 1011.8 1011.8 0.0

Other Formats:

Comma delimited format used in spreadsheet applications
http://www.bom.gov.au/fwo/IDQ60801/IDQ60801.95591.axf

JavaScript Object Notation format (JSON) in row-major order
http://www.bom.gov.au/fwo/IDQ60801/IDQ60801.95591.json